createdAt,value
2022-12-12T00:00:19.112Z,98740.81
2022-12-12T00:03:07.052Z,98743.34
2022-12-12T00:05:59.263Z,98741.69
2022-12-12T00:08:47.148Z,98739.97
2022-12-12T00:11:36.688Z,98732.47
2022-12-12T00:14:26.484Z,98741.69
2022-12-12T00:17:14.806Z,98731.56
2022-12-12T00:20:02.330Z,98728.97
2022-12-12T00:22:50.249Z,98734.03
2022-12-12T00:25:39.293Z,98732.38
2022-12-12T00:28:29.129Z,98732.38
2022-12-12T00:31:17.489Z,98740.06
2022-12-12T00:34:06.321Z,98744.31
2022-12-12T00:36:54.017Z,98746.84
2022-12-12T00:39:43.091Z,98743.47
2022-12-12T00:42:31.939Z,98743.56
2022-12-12T00:45:21.056Z,98747.81
2022-12-12T00:48:09.199Z,98744.47
2022-12-12T00:50:57.970Z,98741.19
2022-12-12T00:53:45.538Z,98738.66
2022-12-12T00:56:33.368Z,98747.91
2022-12-12T00:59:24.202Z,98749.53
2022-12-12T01:02:14.326Z,98750.34
2022-12-12T01:05:05.885Z,98749.53
2022-12-12T01:07:54.242Z,98751.16
2022-12-12T01:10:41.973Z,98757.13
2022-12-12T01:13:30.349Z,98755.41
2022-12-12T01:16:18.274Z,98763.00
2022-12-12T01:19:07.514Z,98756.22
2022-12-12T01:21:56.046Z,98754.59
2022-12-12T01:24:44.887Z,98762.09
2022-12-12T01:27:32.573Z,98763.81
2022-12-12T01:30:24.038Z,98760.47
2022-12-12T01:33:11.804Z,98765.59
2022-12-12T01:36:00.959Z,98766.56
2022-12-12T01:38:50.181Z,98756.53
2022-12-12T01:41:38.107Z,98765.81
2022-12-12T01:44:46.589Z,98768.44
2022-12-12T01:47:34.235Z,98765.19
2022-12-12T01:50:22.490Z,98774.47
2022-12-12T01:53:12.909Z,98785.41
2022-12-12T01:56:03.487Z,98771.13
2022-12-12T01:58:54.127Z,98769.41
2022-12-12T02:01:42.722Z,98776.09
2022-12-12T02:04:30.605Z,98773.50
2022-12-12T02:07:18.858Z,98773.50
2022-12-12T02:10:11.698Z,98776.03
2022-12-12T02:13:03.890Z,98776.09
2022-12-12T02:16:05.256Z,98775.22
2022-12-12T02:18:59.167Z,98773.50
2022-12-12T02:21:53.828Z,98783.63
2022-12-12T02:25:09.306Z,98792.94
2022-12-12T02:28:27.990Z,98785.34
2022-12-12T02:31:23.787Z,98781.91
2022-12-12T02:34:20.392Z,98788.66
2022-12-12T02:37:17.019Z,98786.06
2022-12-12T02:40:15.260Z,98793.56
2022-12-12T02:43:13.036Z,98794.41
2022-12-12T02:46:06.581Z,98795.97
2022-12-12T02:49:03.121Z,98793.44
2022-12-12T02:51:52.664Z,98795.09
2022-12-12T02:54:41.095Z,98802.59
2022-12-12T02:57:29.477Z,98805.03
2022-12-12T03:00:21.763Z,98796.56
2022-12-12T03:03:50.057Z,98786.44
2022-12-12T03:07:14.420Z,98788.97
2022-12-12T03:10:10.475Z,98798.16
2022-12-12T03:13:05.554Z,98799.00
2022-12-12T03:16:04.343Z,98799.81
2022-12-12T03:19:00.495Z,98797.28
2022-12-12T03:21:54.276Z,98797.28
2022-12-12T03:24:50.153Z,98798.09
2022-12-12T03:27:43.578Z,98791.34
2022-12-12T03:30:38.778Z,98793.88
2022-12-12T03:33:31.706Z,98798.03
2022-12-12T03:36:23.315Z,98797.19
2022-12-12T03:39:19.501Z,98792.16
2022-12-12T03:42:12.567Z,98792.16
2022-12-12T03:45:04.501Z,98788.81
2022-12-12T03:47:55.948Z,98796.41
2022-12-12T03:50:49.587Z,98793.94
2022-12-12T03:53:45.408Z,98789.69
2022-12-12T03:56:42.334Z,98793.13
2022-12-12T03:59:35.840Z,98794.75
2022-12-12T04:02:28.938Z,98795.66
2022-12-12T04:05:22.450Z,98789.78
2022-12-12T04:08:14.936Z,98788.97
2022-12-12T04:11:26.221Z,98791.50
2022-12-12T04:14:28.688Z,98791.56
2022-12-12T04:17:19.713Z,98793.28
2022-12-12T04:20:38.060Z,98792.38
2022-12-12T04:23:35.983Z,98791.63
2022-12-12T04:26:43.366Z,98801.75
2022-12-12T04:29:40.535Z,98801.75
2022-12-12T04:32:34.045Z,98801.75
2022-12-12T04:35:30.336Z,98799.22
2022-12-12T04:38:22.047Z,98807.66
2022-12-12T04:41:12.160Z,98806.81
2022-12-12T04:44:03.316Z,98808.53
2022-12-12T04:46:55.999Z,98809.44
2022-12-12T04:49:47.127Z,98817.09
2022-12-12T04:52:36.441Z,98817.09
2022-12-12T04:55:30.387Z,98816.22
2022-12-12T04:58:18.279Z,98822.16
2022-12-12T05:01:11.531Z,98816.28
2022-12-12T05:04:05.286Z,98826.47
2022-12-12T05:06:59.429Z,98830.63
2022-12-12T05:09:47.374Z,98825.56
2022-12-12T05:12:42.708Z,98825.56
2022-12-12T05:15:31.335Z,98826.47
2022-12-12T05:18:19.377Z,98827.38
2022-12-12T05:21:08.661Z,98824.84
2022-12-12T05:23:56.073Z,98826.47
2022-12-12T05:26:43.824Z,98830.63
2022-12-12T05:29:32.133Z,98833.16
2022-12-12T05:32:19.967Z,98832.28
2022-12-12T05:35:10.432Z,98833.16
2022-12-12T05:37:59.570Z,98836.53
2022-12-12T05:40:47.030Z,98834.81
2022-12-12T05:43:34.941Z,98836.53
2022-12-12T05:46:22.995Z,98840.75
2022-12-12T05:49:10.617Z,98839.13
2022-12-12T05:51:58.313Z,98839.13
2022-12-12T05:54:47.614Z,98830.78
2022-12-12T05:57:35.384Z,98834.22
2022-12-12T06:00:23.389Z,98835.06
2022-12-12T06:03:10.859Z,98845.97
2022-12-12T06:05:58.350Z,98845.22
2022-12-12T06:08:46.135Z,98846.94
2022-12-12T06:11:35.362Z,98855.41
2022-12-12T06:14:22.863Z,98857.16
2022-12-12T06:17:10.558Z,98849.56
2022-12-12T06:19:58.488Z,98857.88
2022-12-12T06:22:52.013Z,98852.00
2022-12-12T06:25:41.562Z,98855.41
2022-12-12T06:28:30.526Z,98858.03
2022-12-12T06:31:18.593Z,98862.28
2022-12-12T06:34:07.707Z,98862.28
2022-12-12T06:36:55.521Z,98872.47
2022-12-12T06:39:43.165Z,98880.06
2022-12-12T06:42:30.922Z,98867.41
2022-12-12T06:45:20.508Z,98876.63
2022-12-12T06:48:08.628Z,98875.00
2022-12-12T06:50:56.405Z,98869.13
2022-12-12T06:53:44.151Z,98870.84
2022-12-12T06:56:32.274Z,98868.31
2022-12-12T06:59:22.134Z,98882.59
2022-12-12T07:02:13.586Z,98874.94
2022-12-12T07:04:42.607Z,98875.75
2022-12-12T07:07:11.592Z,98889.16
2022-12-12T07:09:40.725Z,98883.16
2022-12-12T07:12:09.997Z,98891.59
2022-12-12T07:14:40.853Z,98889.88
2022-12-12T07:17:11.336Z,98896.44
2022-12-12T07:19:40.419Z,98900.69
2022-12-12T07:22:10.675Z,98893.91
2022-12-12T07:24:40.319Z,98893.91
2022-12-12T07:27:09.645Z,98902.31
2022-12-12T07:29:38.690Z,98908.28
2022-12-12T07:32:08.000Z,98909.97
2022-12-12T07:34:38.882Z,98919.19
2022-12-12T07:37:08.058Z,98917.44
2022-12-12T07:39:37.373Z,98925.81
2022-12-12T07:42:06.873Z,98923.28
2022-12-12T07:44:38.176Z,98923.38
2022-12-12T07:47:07.694Z,98930.88
2022-12-12T07:49:39.193Z,98931.72
2022-12-12T07:52:08.596Z,98932.59
2022-12-12T07:54:37.749Z,98930.88
2022-12-12T07:57:08.154Z,98940.13
2022-12-12T07:59:37.518Z,98939.22
2022-12-12T08:02:08.134Z,98942.56
2022-12-12T08:04:39.275Z,98940.94
2022-12-12T08:07:08.845Z,98943.47
2022-12-12T08:09:38.348Z,98940.03
2022-12-12T08:12:08.117Z,98948.44
2022-12-12T08:14:38.476Z,98940.84
2022-12-12T08:17:09.801Z,98941.69
2022-12-12T08:19:40.550Z,98940.03
2022-12-12T08:22:09.888Z,98943.47
2022-12-12T08:24:39.189Z,98939.22
2022-12-12T08:27:13.772Z,98938.31
2022-12-12T08:29:45.192Z,98943.47
2022-12-12T08:32:14.409Z,98955.22
2022-12-12T08:34:44.879Z,98950.97
2022-12-12T08:37:13.949Z,98954.25
2022-12-12T08:39:43.194Z,98954.25
2022-12-12T08:42:13.325Z,98957.59
2022-12-12T08:44:42.406Z,98958.38
2022-12-12T08:47:11.487Z,98959.09
2022-12-12T08:49:40.553Z,98959.94
2022-12-12T08:52:11.075Z,98966.56
2022-12-12T08:54:40.252Z,98961.34
2022-12-12T08:57:09.368Z,98960.44
2022-12-12T08:59:38.316Z,98969.66
2022-12-12T09:02:07.831Z,98976.38
2022-12-12T09:04:36.938Z,98971.22
2022-12-12T09:07:08.599Z,98975.41
2022-12-12T09:09:39.487Z,98975.41
2022-12-12T09:12:09.645Z,98972.78
2022-12-12T09:14:39.033Z,98981.16
2022-12-12T09:17:08.144Z,98976.91
2022-12-12T09:19:37.347Z,98986.22
2022-12-12T09:22:06.694Z,98995.38
2022-12-12T09:24:36.177Z,98985.25
2022-12-12T09:27:07.030Z,98986.94
2022-12-12T09:29:36.467Z,98987.63
2022-12-12T09:32:06.794Z,98985.91
2022-12-12T09:34:39.163Z,98990.97
2022-12-12T09:37:08.424Z,98993.41
2022-12-12T09:39:38.041Z,98991.72
2022-12-12T09:42:23.260Z,98989.09
2022-12-12T09:44:57.411Z,98987.38
2022-12-12T09:47:36.969Z,98989.84
2022-12-12T09:50:16.362Z,98987.25
2022-12-12T09:52:46.639Z,98984.72
2022-12-12T09:55:37.513Z,98983.81
2022-12-12T09:58:19.394Z,98977.94
2022-12-12T10:00:54.050Z,98977.84
2022-12-12T10:03:33.564Z,98970.19
2022-12-12T10:06:36.103Z,98974.28
2022-12-12T10:09:13.806Z,98967.56
2022-12-12T10:11:54.477Z,98970.84
2022-12-12T10:14:38.285Z,98971.59
2022-12-12T10:17:13.507Z,98975.84
2022-12-12T10:19:50.905Z,98978.28
2022-12-12T10:22:29.770Z,98985.00
2022-12-12T10:25:08.031Z,98968.94
2022-12-12T10:27:37.487Z,98974.00
2022-12-12T10:30:18.815Z,98972.25
2022-12-12T10:33:11.614Z,98964.75
2022-12-12T10:35:52.835Z,98976.53
2022-12-12T10:38:47.797Z,98979.94
2022-12-12T10:41:27.179Z,98983.38
2022-12-12T10:44:07.086Z,98976.66
2022-12-12T10:46:44.237Z,98980.09
2022-12-12T10:49:18.508Z,98975.84
2022-12-12T10:51:50.345Z,98979.19
2022-12-12T10:54:22.124Z,98979.19
2022-12-12T10:57:20.111Z,98983.38
2022-12-12T10:59:52.824Z,98980.81
2022-12-12T11:02:38.448Z,98990.81
2022-12-12T11:05:18.607Z,98991.56
2022-12-12T11:07:51.744Z,98987.22
2022-12-12T11:10:30.562Z,98990.66
2022-12-12T11:13:16.247Z,98981.28
2022-12-12T11:15:54.223Z,98976.03
2022-12-12T11:18:26.408Z,98969.19
2022-12-12T11:21:07.145Z,98969.03
2022-12-12T11:23:40.465Z,98963.09
2022-12-12T11:26:15.960Z,98967.25
2022-12-12T11:28:48.639Z,98970.53
2022-12-12T11:31:18.612Z,98970.44
2022-12-12T11:33:54.754Z,98969.56
2022-12-12T11:36:31.415Z,98976.25
2022-12-12T11:39:13.459Z,98982.91
2022-12-12T11:42:02.736Z,98975.28
2022-12-12T11:44:38.468Z,98972.69
2022-12-12T11:47:25.931Z,98965.00
2022-12-12T11:49:59.401Z,98967.53
2022-12-12T11:52:32.521Z,98965.75
2022-12-12T11:55:05.940Z,98963.22
2022-12-12T11:58:09.878Z,98958.16
2022-12-12T12:00:47.271Z,98953.88
2022-12-12T12:03:29.002Z,98954.69
2022-12-12T12:06:27.896Z,98958.16
2022-12-12T12:09:24.154Z,98963.22
2022-12-12T12:12:03.735Z,98961.56
2022-12-12T12:15:09.103Z,98960.72
2022-12-12T12:18:01.144Z,98953.22
2022-12-12T12:20:51.632Z,98948.97
2022-12-12T12:23:30.678Z,98954.84
2022-12-12T12:26:05.127Z,98948.16
2022-12-12T12:29:04.286Z,98940.53
2022-12-12T12:31:45.088Z,98942.28
2022-12-12T12:34:23.869Z,98941.47
2022-12-12T12:37:12.616Z,98939.81
2022-12-12T12:40:07.332Z,98938.19
2022-12-12T12:43:07.709Z,98949.19
2022-12-12T12:45:46.758Z,98945.88
2022-12-12T12:48:24.217Z,98938.34
2022-12-12T12:51:03.890Z,98938.34
2022-12-12T12:53:40.237Z,98936.69
2022-12-12T12:56:26.528Z,98931.72
2022-12-12T12:58:59.837Z,98926.72
2022-12-12T13:01:37.405Z,98926.72
2022-12-12T13:04:15.641Z,98925.09
2022-12-12T13:06:51.003Z,98910.06
2022-12-12T13:09:34.416Z,98915.94
2022-12-12T13:12:14.568Z,98919.44
2022-12-12T13:14:52.180Z,98911.03
2022-12-12T13:17:35.527Z,98916.91
2022-12-12T13:20:06.640Z,98906.84
2022-12-12T13:23:12.202Z,98923.78
2022-12-12T13:25:49.274Z,98922.94
2022-12-12T13:28:24.426Z,98923.78
2022-12-12T13:31:23.233Z,98924.66
2022-12-12T13:33:57.873Z,98917.06
2022-12-12T13:36:30.496Z,98922.13
2022-12-12T13:39:01.556Z,98911.19
2022-12-12T13:42:02.620Z,98916.25
2022-12-12T13:44:41.143Z,98912.88
2022-12-12T13:47:44.640Z,98915.41
2022-12-12T13:50:22.835Z,98907.91
2022-12-12T13:53:18.943Z,98912.97
2022-12-12T13:55:48.271Z,98917.22
2022-12-12T13:58:35.798Z,98907.09
2022-12-12T14:01:40.835Z,98908.00
2022-12-12T14:04:28.011Z,98908.06
2022-12-12T14:07:04.665Z,98907.22
2022-12-12T14:09:48.349Z,98914.81
2022-12-12T14:12:27.486Z,98914.03
2022-12-12T14:15:01.694Z,98918.28
2022-12-12T14:17:42.094Z,98905.63
2022-12-12T14:20:28.683Z,98914.09
2022-12-12T14:23:26.085Z,98903.16
2022-12-12T14:25:56.114Z,98907.41
2022-12-12T14:28:28.410Z,98912.47
2022-12-12T14:31:13.406Z,98911.56
2022-12-12T14:34:09.644Z,98912.47
2022-12-12T14:37:16.844Z,98902.31
2022-12-12T14:40:19.855Z,98914.19
2022-12-12T14:43:19.248Z,98907.47
2022-12-12T14:45:57.151Z,98903.28
2022-12-12T14:48:29.657Z,98905.03
2022-12-12T14:51:06.858Z,98897.44
2022-12-12T14:53:52.912Z,98902.50
2022-12-12T14:56:28.829Z,98899.19
2022-12-12T14:59:04.739Z,98908.53
2022-12-12T15:01:37.298Z,98912.78
2022-12-12T15:04:09.587Z,98916.19
2022-12-12T15:06:41.263Z,98917.09
2022-12-12T15:09:24.689Z,98914.56
2022-12-12T15:11:56.179Z,98917.84
2022-12-12T15:14:28.122Z,98913.59
2022-12-12T15:17:03.557Z,98921.09
2022-12-12T15:19:37.421Z,98926.16
2022-12-12T15:22:17.230Z,98932.00
2022-12-12T15:24:46.392Z,98927.72
2022-12-12T15:27:21.813Z,98924.41
2022-12-12T15:29:52.472Z,98924.41
2022-12-12T15:32:24.968Z,98916.72
2022-12-12T15:35:04.347Z,98914.19
2022-12-12T15:37:36.575Z,98921.78
2022-12-12T15:40:25.153Z,98922.59
2022-12-12T15:43:00.447Z,98920.94
2022-12-12T15:45:34.988Z,98920.13
2022-12-12T15:48:05.728Z,98916.72
2022-12-12T15:50:52.157Z,98916.78
2022-12-12T15:53:24.991Z,98914.25
2022-12-12T15:56:01.081Z,98910.00
2022-12-12T15:58:32.950Z,98911.72
2022-12-12T16:01:20.120Z,98904.94
2022-12-12T16:04:02.711Z,98903.28
2022-12-12T16:06:34.753Z,98901.66
2022-12-12T16:09:18.681Z,98894.13
2022-12-12T16:11:49.522Z,98896.75
2022-12-12T16:14:39.027Z,98899.28
2022-12-12T16:17:13.307Z,98908.69
2022-12-12T16:19:50.453Z,98911.13
2022-12-12T16:22:34.477Z,98918.72
2022-12-12T16:25:22.473Z,98925.44
2022-12-12T16:28:00.400Z,98929.59
2022-12-12T16:30:30.202Z,98920.38
2022-12-12T16:32:59.264Z,98931.22
2022-12-12T16:35:28.463Z,98921.09
2022-12-12T16:37:57.632Z,98930.50
2022-12-12T16:40:29.667Z,98935.63
2022-12-12T16:43:10.722Z,98939.88
2022-12-12T16:45:40.588Z,98939.16
2022-12-12T16:48:16.131Z,98937.44
2022-12-12T16:50:46.290Z,98937.50
2022-12-12T16:53:15.665Z,98934.09
2022-12-12T16:55:49.190Z,98941.69
2022-12-12T16:58:21.300Z,98940.84
2022-12-12T17:00:52.964Z,98944.25
2022-12-12T17:03:24.952Z,98944.25
2022-12-12T17:05:54.616Z,98940.03
2022-12-12T17:08:24.120Z,98948.53
2022-12-12T17:11:10.523Z,98947.78
2022-12-12T17:13:45.896Z,98947.03
2022-12-12T17:16:15.432Z,98948.81
2022-12-12T17:18:46.078Z,98939.59
2022-12-12T17:21:15.436Z,98944.75
2022-12-12T17:23:45.172Z,98934.63
2022-12-12T17:26:16.634Z,98937.97
2022-12-12T17:28:45.764Z,98935.34
2022-12-12T17:31:17.003Z,98932.81
2022-12-12T17:33:51.078Z,98926.03
2022-12-12T17:36:21.088Z,98935.25
2022-12-12T17:38:53.749Z,98929.41
2022-12-12T17:41:24.410Z,98926.88
2022-12-12T17:43:58.250Z,98929.41
2022-12-12T17:46:36.451Z,98932.88
2022-12-12T17:49:05.574Z,98934.53
2022-12-12T17:51:34.867Z,98942.13
2022-12-12T17:54:04.068Z,98944.66
2022-12-12T17:56:35.831Z,98932.09
2022-12-12T17:59:09.692Z,98932.00
2022-12-12T18:01:40.992Z,98937.16
2022-12-12T18:04:10.377Z,98945.56
2022-12-12T18:07:05.519Z,98943.91
2022-12-12T18:09:38.922Z,98941.44
2022-12-12T18:12:09.858Z,98949.13
2022-12-12T18:14:41.974Z,98941.44
2022-12-12T18:17:11.373Z,98942.25
2022-12-12T18:19:41.142Z,98936.38
2022-12-12T18:22:11.029Z,98933.78
2022-12-12T18:24:40.524Z,98936.31
2022-12-12T18:27:11.223Z,98943.91
2022-12-12T18:29:40.460Z,98934.66
2022-12-12T18:32:09.709Z,98939.72
2022-12-12T18:34:42.383Z,98940.66
2022-12-12T18:37:13.596Z,98939.00
2022-12-12T18:39:43.050Z,98934.75
2022-12-12T18:42:13.760Z,98932.28
2022-12-12T18:44:46.078Z,98930.66
2022-12-12T18:47:15.186Z,98935.72
2022-12-12T18:49:44.598Z,98929.84
2022-12-12T18:52:13.842Z,98934.81
2022-12-12T18:54:43.252Z,98938.25
2022-12-12T18:57:18.231Z,98934.09
2022-12-12T18:59:47.501Z,98931.66
2022-12-12T19:02:16.818Z,98933.34
2022-12-12T19:04:47.883Z,98931.69
2022-12-12T19:07:20.550Z,98930.88
2022-12-12T19:09:49.790Z,98941.91
2022-12-12T19:12:20.395Z,98950.41
2022-12-12T19:15:15.790Z,98949.56
2022-12-12T19:17:38.743Z,98952.19
2022-12-12T19:20:09.360Z,98952.34
2022-12-12T19:22:46.647Z,98953.22
2022-12-12T19:25:17.368Z,98954.09
2022-12-12T19:27:48.022Z,98951.66
2022-12-12T19:30:18.107Z,98954.34
2022-12-12T19:32:49.196Z,98959.47
2022-12-12T19:35:18.781Z,98952.84
2022-12-12T19:37:48.090Z,98947.91
2022-12-12T19:40:17.875Z,98954.69
2022-12-12T19:42:48.611Z,98943.84
2022-12-12T19:45:18.208Z,98948.94
2022-12-12T19:47:47.447Z,98949.03
2022-12-12T19:50:17.029Z,98939.00
2022-12-12T19:52:46.737Z,98936.47
2022-12-12T19:55:16.709Z,98945.84
2022-12-12T19:57:47.632Z,98939.13
2022-12-12T20:00:20.054Z,98940.88
2022-12-12T20:02:49.275Z,98942.69
2022-12-12T20:05:19.619Z,98950.34
2022-12-12T20:07:48.872Z,98946.25
2022-12-12T20:10:18.341Z,98944.59
2022-12-12T20:12:58.457Z,98937.09
2022-12-12T20:15:29.054Z,98947.28
2022-12-12T20:18:00.609Z,98943.09
2022-12-12T20:20:32.977Z,98950.78
2022-12-12T20:23:02.145Z,98952.50
2022-12-12T20:25:31.584Z,98952.50
2022-12-12T20:28:02.621Z,98943.25
2022-12-12T20:30:31.841Z,98955.03
2022-12-12T20:33:01.164Z,98950.09
2022-12-12T20:35:30.674Z,98957.66
2022-12-12T20:37:59.802Z,98952.75
2022-12-12T20:40:29.760Z,98945.19
2022-12-12T20:43:03.432Z,98944.38
2022-12-12T20:45:39.423Z,98950.22
2022-12-12T20:48:08.718Z,98945.31
2022-12-12T20:50:38.013Z,98946.94
2022-12-12T20:53:07.450Z,98949.56
2022-12-12T20:55:37.114Z,98952.16
2022-12-12T20:58:06.666Z,98949.69
2022-12-12T21:00:39.705Z,98940.47
2022-12-12T21:03:37.615Z,98944.78
2022-12-12T21:06:34.768Z,98941.50
2022-12-12T21:09:26.441Z,98929.81
2022-12-12T21:12:15.602Z,98926.56
2022-12-12T21:15:03.418Z,98930.84
2022-12-12T21:17:53.647Z,98931.75
2022-12-12T21:20:45.888Z,98928.47
2022-12-12T21:23:34.993Z,98922.72
2022-12-12T21:26:28.885Z,98921.91
2022-12-12T21:29:17.406Z,98926.25
2022-12-12T21:32:07.051Z,98926.38
2022-12-12T21:34:56.369Z,98918.94
2022-12-12T21:37:50.632Z,98913.09
2022-12-12T21:40:38.764Z,98920.84
2022-12-12T21:43:26.472Z,98917.56
2022-12-12T21:46:16.708Z,98916.81
2022-12-12T21:49:22.126Z,98914.34
2022-12-12T21:52:12.243Z,98928.72
2022-12-12T21:54:59.806Z,98919.50
2022-12-12T21:57:47.462Z,98911.03
2022-12-12T22:00:39.961Z,98918.59
2022-12-12T22:03:31.032Z,98916.16
2022-12-12T22:06:21.284Z,98910.25
2022-12-12T22:09:12.500Z,98922.09
2022-12-12T22:12:03.281Z,98924.63
2022-12-12T22:14:52.573Z,98925.56
2022-12-12T22:17:46.755Z,98907.13
2022-12-12T22:20:36.398Z,98913.13
2022-12-12T22:23:24.513Z,98913.13
2022-12-12T22:26:18.223Z,98910.66
2022-12-12T22:29:08.216Z,98912.41
2022-12-12T22:31:56.077Z,98913.28
2022-12-12T22:34:43.657Z,98914.22
2022-12-12T22:37:31.563Z,98910.13
2022-12-12T22:40:19.268Z,98913.50
2022-12-12T22:43:08.479Z,98914.38
2022-12-12T22:45:56.388Z,98911.84
2022-12-12T22:48:44.086Z,98914.38
2022-12-12T22:51:34.146Z,98913.59
2022-12-12T22:54:21.687Z,98910.50
2022-12-12T22:57:09.167Z,98906.31
2022-12-12T22:59:58.415Z,98903.94
2022-12-12T23:02:46.176Z,98902.38
2022-12-12T23:05:34.128Z,98902.38
2022-12-12T23:08:21.814Z,98904.13
2022-12-12T23:11:16.372Z,98898.34
2022-12-12T23:14:06.516Z,98894.16
2022-12-12T23:16:56.421Z,98889.25
2022-12-12T23:19:43.834Z,98890.22
2022-12-12T23:22:33.463Z,98891.16
2022-12-12T23:25:20.936Z,98891.22
2022-12-12T23:28:13.773Z,98897.16
2022-12-12T23:31:02.080Z,98899.75
2022-12-12T23:33:54.950Z,98892.19
2022-12-12T23:36:42.533Z,98893.91
2022-12-12T23:39:30.398Z,98890.59
2022-12-12T23:42:18.148Z,98878.06
2022-12-12T23:45:07.126Z,98880.56
2022-12-12T23:47:54.740Z,98879.81
2022-12-12T23:50:44.017Z,98884.06
2022-12-12T23:53:34.512Z,98878.22
2022-12-12T23:56:22.179Z,98885.00
2022-12-12T23:59:16.882Z,98874.22
